createdAt,value
2022-08-31T00:31:31.154Z,1009.91
2022-08-31T00:32:11.614Z,1009.92
2022-08-31T00:32:52.099Z,1009.88
2022-08-31T00:33:32.629Z,1009.86
2022-08-31T00:34:13.154Z,1009.91
2022-08-31T00:34:53.656Z,1009.93
2022-08-31T00:35:34.093Z,1009.9
2022-08-31T00:36:14.577Z,1009.88
2022-08-31T00:36:55.011Z,1009.91
2022-08-31T00:37:35.507Z,1009.91
2022-08-31T00:38:15.977Z,1009.91
2022-08-31T00:38:56.522Z,1009.91
2022-08-31T00:39:37.051Z,1009.94
2022-08-31T00:40:17.570Z,1009.93
2022-08-31T00:41:38.448Z,1010
2022-08-31T00:42:18.939Z,1009.96
2022-08-31T00:42:59.407Z,1009.98
2022-08-31T00:43:39.910Z,1010.01
2022-08-31T00:44:20.387Z,1010.02
2022-08-31T00:45:00.873Z,1009.99
2022-08-31T00:45:41.391Z,1010.02
2022-08-31T00:47:02.372Z,1010.01
2022-08-31T00:47:42.985Z,1010.02
2022-08-31T00:48:23.338Z,1010.04
2022-08-31T00:49:03.751Z,1010.04
2022-08-31T00:49:44.286Z,1010.05
2022-08-31T00:50:24.725Z,1010
2022-08-31T00:51:05.294Z,1010.04
2022-08-31T00:51:45.732Z,1010.01
2022-08-31T00:52:26.246Z,1009.99
2022-08-31T00:53:06.678Z,1010.02
2022-08-31T00:53:47.209Z,1009.99
2022-08-31T00:54:27.626Z,1009.97
2022-08-31T00:55:08.101Z,1010.02
2022-08-31T00:55:48.577Z,1010.05
2022-08-31T00:56:29.048Z,1010.07
2022-08-31T00:57:09.532Z,1010.06
2022-08-31T00:57:50.012Z,1010.11
2022-08-31T00:58:30.494Z,1010.11
2022-08-31T00:59:11.002Z,1010.09
2022-08-31T00:59:51.540Z,1010.15
2022-08-31T01:00:32.071Z,1010.16
2022-08-31T01:01:12.589Z,1010.16
2022-08-31T01:01:53.048Z,1010.12
2022-08-31T01:02:33.596Z,1010.11
2022-08-31T01:03:13.989Z,1010.11
2022-08-31T01:03:54.495Z,1010.16
2022-08-31T01:04:34.904Z,1010.13
2022-08-31T01:05:15.405Z,1010.12
2022-08-31T01:05:55.894Z,1010.13
2022-08-31T01:06:36.347Z,1010.14
2022-08-31T01:07:16.881Z,1010.11
2022-08-31T01:07:57.343Z,1010.16
2022-08-31T01:08:37.809Z,1010.15
2022-08-31T01:09:18.277Z,1010.21
2022-08-31T01:09:58.763Z,1010.2
2022-08-31T01:10:39.234Z,1010.2
2022-08-31T01:11:19.734Z,1010.23
2022-08-31T01:12:00.248Z,1010.26
2022-08-31T01:12:40.787Z,1010.22
2022-08-31T01:13:21.260Z,1010.23
2022-08-31T01:14:01.776Z,1010.26
2022-08-31T01:14:42.257Z,1010.28
2022-08-31T01:15:22.683Z,1010.27
2022-08-31T01:16:03.349Z,1010.28
2022-08-31T01:17:24.137Z,1010.28
2022-08-31T01:18:04.675Z,1010.3
2022-08-31T01:18:45.188Z,1010.29
2022-08-31T01:19:25.716Z,1010.31
2022-08-31T01:20:06.198Z,1010.3
2022-08-31T01:20:48.964Z,1010.35
2022-08-31T01:21:27.196Z,1010.3
2022-08-31T01:22:07.654Z,1010.32
2022-08-31T01:22:48.221Z,1010.37
2022-08-31T01:23:28.651Z,1010.35
2022-08-31T01:24:09.211Z,1010.35
2022-08-31T01:24:49.633Z,1010.36
2022-08-31T01:25:33.339Z,1010.39
2022-08-31T01:26:10.639Z,1010.32
2022-08-31T01:26:55.543Z,1010.34
2022-08-31T01:27:31.533Z,1010.35
2022-08-31T01:28:12.030Z,1010.36
2022-08-31T01:28:52.526Z,1010.3
2022-08-31T01:30:13.523Z,1010.3
2022-08-31T01:30:54.017Z,1010.37
2022-08-31T01:31:34.622Z,1010.35
2022-08-31T01:32:14.989Z,1010.33
2022-08-31T01:32:55.466Z,1010.33
2022-08-31T01:33:35.918Z,1010.35
2022-08-31T01:34:16.553Z,1010.36
2022-08-31T01:34:57.023Z,1010.38
2022-08-31T01:35:37.453Z,1010.35
2022-08-31T01:36:17.914Z,1010.33
2022-08-31T01:37:38.890Z,1010.33
2022-08-31T01:38:19.410Z,1010.33
2022-08-31T01:38:59.904Z,1010.34
2022-08-31T01:39:40.353Z,1010.29
2022-08-31T01:40:20.856Z,1010.3
2022-08-31T01:41:01.316Z,1010.27
2022-08-31T01:41:41.817Z,1010.28
2022-08-31T01:42:22.293Z,1010.25
2022-08-31T01:43:02.796Z,1010.26
2022-08-31T01:43:43.274Z,1010.24
2022-08-31T01:44:23.798Z,1010.28
2022-08-31T01:45:04.238Z,1010.26
2022-08-31T01:45:44.768Z,1010.29
2022-08-31T01:46:25.242Z,1010.28
2022-08-31T01:47:46.133Z,1010.23
2022-08-31T01:48:26.600Z,1010.26
2022-08-31T01:49:07.116Z,1010.24
2022-08-31T01:49:47.582Z,1010.27
2022-08-31T01:50:28.193Z,1010.25
2022-08-31T01:51:08.592Z,1010.3
2022-08-31T01:51:49.111Z,1010.28
2022-08-31T01:52:29.540Z,1010.31
2022-08-31T01:53:10.014Z,1010.27
2022-08-31T01:53:50.518Z,1010.29
2022-08-31T01:54:31.053Z,1010.24
2022-08-31T01:55:12.215Z,1010.25
2022-08-31T01:55:52.717Z,1010.27
2022-08-31T01:56:33.202Z,1010.28
2022-08-31T01:57:13.666Z,1010.29
2022-08-31T01:57:54.136Z,1010.29
2022-08-31T01:58:34.627Z,1010.25
2022-08-31T01:59:15.098Z,1010.24
2022-08-31T01:59:55.570Z,1010.25
2022-08-31T02:00:36.116Z,1010.26
2022-08-31T02:01:33.376Z,1010.26
2022-08-31T02:01:57.155Z,1010.3
2022-08-31T02:02:37.536Z,1010.29
2022-08-31T02:03:18.165Z,1010.29
2022-08-31T02:03:58.452Z,1010.29
2022-08-31T02:04:38.951Z,1010.28
2022-08-31T02:05:19.489Z,1010.27
2022-08-31T02:07:50.810Z,1010.31
2022-08-31T02:08:31.870Z,1010.28
2022-08-31T02:09:12.854Z,1010.27
2022-08-31T02:09:53.807Z,1010.28
2022-08-31T02:10:34.818Z,1010.25
2022-08-31T02:11:15.836Z,1010.26
2022-08-31T02:11:56.800Z,1010.27
2022-08-31T02:12:37.901Z,1010.31
2022-08-31T02:13:19.055Z,1010.31
2022-08-31T02:13:59.878Z,1010.29
2022-08-31T02:14:40.839Z,1010.3
2022-08-31T02:15:21.818Z,1010.33
2022-08-31T02:16:02.805Z,1010.36
2022-08-31T02:16:43.775Z,1010.36
2022-08-31T02:17:24.792Z,1010.38
2022-08-31T02:18:05.758Z,1010.39
2022-08-31T02:18:46.745Z,1010.41
2022-08-31T02:20:08.743Z,1010.43
2022-08-31T02:20:49.806Z,1010.44
2022-08-31T02:21:30.816Z,1010.43
2022-08-31T02:22:11.808Z,1010.48
2022-08-31T02:22:52.765Z,1010.49
2022-08-31T02:23:33.724Z,1010.5
2022-08-31T02:24:14.697Z,1010.48
2022-08-31T02:24:55.680Z,1010.54
2022-08-31T02:25:36.714Z,1010.56
2022-08-31T02:26:17.685Z,1010.54
2022-08-31T02:27:39.634Z,1010.53
2022-08-31T02:28:20.594Z,1010.55
2022-08-31T02:29:01.596Z,1010.56
2022-08-31T02:29:42.509Z,1010.54
2022-08-31T02:30:23.536Z,1010.56
2022-08-31T02:31:04.557Z,1010.6
2022-08-31T02:31:45.620Z,1010.59
2022-08-31T02:32:26.567Z,1010.57
2022-08-31T02:33:07.615Z,1010.59
2022-08-31T02:33:48.561Z,1010.56
2022-08-31T02:35:10.553Z,1010.56
2022-08-31T02:35:51.838Z,1010.57
2022-08-31T02:36:33.078Z,1010.53
2022-08-31T02:37:13.526Z,1010.56
2022-08-31T02:37:54.500Z,1010.59
2022-08-31T02:38:35.499Z,1010.6
2022-08-31T02:39:16.475Z,1010.57
2022-08-31T02:39:57.467Z,1010.57
2022-08-31T02:40:38.650Z,1010.55
2022-08-31T02:41:19.500Z,1010.61
2022-08-31T02:42:52.524Z,1010.61
2022-08-31T02:43:24.571Z,1010.61
2022-08-31T02:44:03.428Z,1010.61
2022-08-31T02:44:44.397Z,1010.64
2022-08-31T02:45:25.368Z,1010.65
2022-08-31T02:46:06.486Z,1010.7
2022-08-31T02:46:47.411Z,1010.69
2022-08-31T02:47:28.325Z,1010.74
2022-08-31T02:48:09.322Z,1010.77
2022-08-31T02:48:50.286Z,1010.77
2022-08-31T02:50:12.231Z,1010.79
2022-08-31T02:50:53.249Z,1010.81
2022-08-31T02:51:34.231Z,1010.85
2022-08-31T02:52:15.225Z,1010.8
2022-08-31T02:52:56.330Z,1010.81
2022-08-31T02:53:37.308Z,1010.82
2022-08-31T02:54:18.269Z,1010.86
2022-08-31T02:54:59.222Z,1010.82
2022-08-31T02:55:40.201Z,1010.82
2022-08-31T02:56:21.183Z,1010.86
2022-08-31T02:57:02.191Z,1010.86
2022-08-31T02:57:43.164Z,1010.91
2022-08-31T02:58:24.281Z,1010.83
2022-08-31T02:59:05.180Z,1010.84
2022-08-31T02:59:46.159Z,1010.89
2022-08-31T03:00:27.136Z,1010.84
2022-08-31T03:01:08.150Z,1010.86
2022-08-31T03:01:49.093Z,1010.87
2022-08-31T03:02:31.685Z,1010.86
2022-08-31T03:03:11.099Z,1010.9
2022-08-31T03:03:51.987Z,1010.87
2022-08-31T03:04:32.979Z,1010.89
2022-08-31T03:05:13.948Z,1010.87
2022-08-31T03:05:54.913Z,1010.85
2022-08-31T03:06:35.887Z,1010.87
2022-08-31T03:07:16.861Z,1010.87
2022-08-31T03:07:57.846Z,1010.86
2022-08-31T03:08:38.854Z,1010.87
2022-08-31T03:09:19.804Z,1010.85
2022-08-31T03:10:00.777Z,1010.85
2022-08-31T03:10:41.740Z,1010.84
2022-08-31T03:11:22.783Z,1010.86
2022-08-31T03:12:03.733Z,1010.86
2022-08-31T03:12:44.677Z,1010.84
2022-08-31T03:13:25.676Z,1010.86
2022-08-31T03:14:06.710Z,1010.87
2022-08-31T03:14:47.682Z,1010.84
2022-08-31T03:15:28.682Z,1010.83
2022-08-31T03:16:09.648Z,1010.88
2022-08-31T03:16:51.820Z,1010.89
2022-08-31T03:17:31.616Z,1010.86
2022-08-31T03:18:12.555Z,1010.89
2022-08-31T03:18:53.555Z,1010.86
2022-08-31T03:20:15.575Z,1010.89
2022-08-31T03:20:56.658Z,1010.93
2022-08-31T03:21:37.618Z,1010.92
2022-08-31T03:22:18.578Z,1010.89
2022-08-31T03:22:59.578Z,1010.92
2022-08-31T03:23:40.555Z,1010.91
2022-08-31T03:24:21.655Z,1010.92
2022-08-31T03:25:02.520Z,1010.92
2022-08-31T03:25:43.564Z,1010.93
2022-08-31T03:26:24.511Z,1010.91
2022-08-31T03:27:05.475Z,1010.9
2022-08-31T03:27:46.465Z,1010.91
2022-08-31T03:28:27.405Z,1010.91
2022-08-31T03:29:08.359Z,1010.92
2022-08-31T03:29:49.379Z,1010.88
2022-08-31T03:30:31.474Z,1010.91
2022-08-31T03:31:11.375Z,1010.93
2022-08-31T03:31:52.259Z,1010.93
2022-08-31T03:32:33.327Z,1010.93
2022-08-31T03:33:14.312Z,1010.91
2022-08-31T03:33:55.243Z,1010.9
2022-08-31T03:34:36.212Z,1010.89
2022-08-31T03:35:17.235Z,1010.9
2022-08-31T03:35:58.151Z,1010.87
2022-08-31T03:36:39.185Z,1010.85
2022-08-31T03:37:20.137Z,1010.84
2022-08-31T03:38:01.129Z,1010.84
2022-08-31T03:38:42.112Z,1010.81
2022-08-31T03:39:23.055Z,1010.84
2022-08-31T03:40:04.040Z,1010.74
2022-08-31T03:40:45.040Z,1010.78
2022-08-31T03:41:25.967Z,1010.75
2022-08-31T03:42:07.003Z,1010.73
2022-08-31T03:42:47.972Z,1010.72
2022-08-31T03:43:28.927Z,1010.69
2022-08-31T03:44:09.891Z,1010.74
2022-08-31T03:44:50.860Z,1010.72
2022-08-31T03:45:31.874Z,1010.7
2022-08-31T03:46:12.856Z,1010.7
2022-08-31T03:46:53.853Z,1010.69
2022-08-31T03:47:34.872Z,1010.69
2022-08-31T03:48:15.708Z,1010.7
2022-08-31T03:48:56.699Z,1010.7
2022-08-31T03:49:37.682Z,1010.71
2022-08-31T03:50:18.655Z,1010.68
2022-08-31T03:50:59.670Z,1010.7
2022-08-31T03:53:21.992Z,1010.65
2022-08-31T03:53:58.440Z,1010.6
2022-08-31T03:54:38.989Z,1010.61
2022-08-31T03:55:19.404Z,1010.62
2022-08-31T03:55:59.963Z,1010.59
2022-08-31T03:56:40.416Z,1010.58
2022-08-31T03:57:20.974Z,1010.54
2022-08-31T03:58:01.410Z,1010.52
2022-08-31T03:58:41.908Z,1010.51
2022-08-31T03:59:22.395Z,1010.5
2022-08-31T04:00:02.872Z,1010.52
2022-08-31T04:00:43.365Z,1010.49
2022-08-31T04:01:23.920Z,1010.48
2022-08-31T04:02:04.322Z,1010.5
2022-08-31T04:02:44.847Z,1010.5
2022-08-31T04:03:25.349Z,1010.47
2022-08-31T04:04:05.852Z,1010.51
2022-08-31T04:04:46.356Z,1010.52
2022-08-31T04:05:26.968Z,1010.55
2022-08-31T04:06:07.452Z,1010.51
2022-08-31T04:06:47.967Z,1010.5
2022-08-31T04:07:28.398Z,1010.54
2022-08-31T04:08:08.862Z,1010.57
2022-08-31T04:08:49.311Z,1010.58
2022-08-31T04:09:29.809Z,1010.56
2022-08-31T04:10:10.336Z,1010.55
2022-08-31T04:10:50.769Z,1010.54
2022-08-31T04:11:45.011Z,1010.54
2022-08-31T04:12:11.743Z,1010.48
2022-08-31T04:13:32.854Z,1010.48
2022-08-31T04:14:15.449Z,1010.46
2022-08-31T04:14:53.898Z,1010.47
2022-08-31T04:15:34.386Z,1010.46
2022-08-31T04:16:14.848Z,1010.44
2022-08-31T04:16:55.289Z,1010.44
2022-08-31T04:17:35.799Z,1010.43
2022-08-31T04:18:16.797Z,1010.47
2022-08-31T04:18:57.799Z,1010.43
2022-08-31T04:19:38.306Z,1010.42
2022-08-31T04:20:18.805Z,1010.42
2022-08-31T04:20:59.333Z,1010.43
2022-08-31T04:21:39.816Z,1010.49
2022-08-31T04:22:20.296Z,1010.42
2022-08-31T04:23:00.774Z,1010.46
2022-08-31T04:23:41.848Z,1010.44
2022-08-31T04:24:22.354Z,1010.46
2022-08-31T04:25:02.828Z,1010.44
2022-08-31T04:25:43.330Z,1010.4
2022-08-31T04:26:23.767Z,1010.44
2022-08-31T04:27:04.227Z,1010.42
2022-08-31T04:27:44.675Z,1010.45
2022-08-31T04:28:25.195Z,1010.45
2022-08-31T04:29:08.640Z,1010.44
2022-08-31T04:29:46.150Z,1010.47
2022-08-31T04:30:26.638Z,1010.47
2022-08-31T04:31:07.225Z,1010.46
2022-08-31T04:31:47.656Z,1010.48
2022-08-31T04:32:28.107Z,1010.5
2022-08-31T04:33:08.667Z,1010.47
2022-08-31T04:33:49.142Z,1010.52
2022-08-31T04:34:29.633Z,1010.48
2022-08-31T04:35:10.093Z,1010.49
2022-08-31T04:35:50.569Z,1010.5
2022-08-31T04:36:31.116Z,1010.48
2022-08-31T04:37:11.614Z,1010.52
2022-08-31T04:37:52.074Z,1010.53
2022-08-31T04:39:13.051Z,1010.53
2022-08-31T04:39:53.508Z,1010.56
2022-08-31T04:40:34.031Z,1010.54
2022-08-31T04:41:14.487Z,1010.56
2022-08-31T04:41:54.981Z,1010.59
2022-08-31T04:42:35.439Z,1010.57
2022-08-31T04:43:15.904Z,1010.59
2022-08-31T04:43:56.369Z,1010.61
2022-08-31T04:44:36.874Z,1010.59
2022-08-31T04:45:17.388Z,1010.61
2022-08-31T04:46:38.335Z,1010.62
2022-08-31T04:47:18.861Z,1010.6
2022-08-31T04:47:59.385Z,1010.64
2022-08-31T04:51:33.453Z,1010.63
2022-08-31T04:52:13.992Z,1010.62
2022-08-31T04:53:03.606Z,1010.62
2022-08-31T04:53:34.912Z,1010.64
2022-08-31T04:54:15.382Z,1010.64
2022-08-31T04:54:55.825Z,1010.61
2022-08-31T04:55:36.315Z,1010.62
2022-08-31T04:56:16.810Z,1010.62
2022-08-31T04:56:57.259Z,1010.6
2022-08-31T04:57:37.708Z,1010.63
2022-08-31T04:58:18.214Z,1010.63
2022-08-31T04:58:58.695Z,1010.61
2022-08-31T04:59:39.235Z,1010.61
2022-08-31T05:00:19.762Z,1010.61
2022-08-31T05:01:00.309Z,1010.63
2022-08-31T05:01:42.360Z,1010.62
2022-08-31T05:02:21.289Z,1010.64
2022-08-31T05:03:01.727Z,1010.64
2022-08-31T05:03:42.176Z,1010.65
2022-08-31T05:04:22.663Z,1010.67
2022-08-31T05:05:03.127Z,1010.64
2022-08-31T05:05:43.597Z,1010.63
2022-08-31T05:06:24.105Z,1010.66
2022-08-31T05:07:04.577Z,1010.64
2022-08-31T05:07:45.111Z,1010.65
2022-08-31T05:08:25.564Z,1010.66
2022-08-31T05:09:06.024Z,1010.63
2022-08-31T05:09:46.514Z,1010.65
2022-08-31T05:10:27.017Z,1010.62
2022-08-31T05:11:07.471Z,1010.62
2022-08-31T05:11:47.938Z,1010.64
2022-08-31T05:12:28.457Z,1010.59
2022-08-31T05:13:08.950Z,1010.6
2022-08-31T05:13:49.469Z,1010.61
2022-08-31T05:15:10.591Z,1010.61
2022-08-31T05:15:54.750Z,1010.59
2022-08-31T05:16:31.675Z,1010.56
2022-08-31T05:17:14.872Z,1010.61
2022-08-31T05:17:52.661Z,1010.62
2022-08-31T05:18:33.137Z,1010.58
2022-08-31T05:19:13.597Z,1010.57
2022-08-31T05:19:55.042Z,1010.58
2022-08-31T05:20:35.550Z,1010.65
2022-08-31T05:21:16.054Z,1010.61
2022-08-31T05:21:56.513Z,1010.63
2022-08-31T05:22:37.073Z,1010.63
2022-08-31T05:23:17.726Z,1010.61
2022-08-31T05:23:58.076Z,1010.59
2022-08-31T05:24:38.581Z,1010.57
2022-08-31T05:25:19.060Z,1010.63
2022-08-31T05:25:59.610Z,1010.63
2022-08-31T05:26:41.979Z,1010.62
2022-08-31T05:27:20.592Z,1010.64
2022-08-31T05:28:01.019Z,1010.67
2022-08-31T05:28:41.472Z,1010.67
2022-08-31T05:29:21.951Z,1010.65
2022-08-31T05:30:02.603Z,1010.68
2022-08-31T05:30:43.152Z,1010.7
2022-08-31T05:31:23.655Z,1010.73
2022-08-31T05:32:04.083Z,1010.69
2022-08-31T05:32:44.573Z,1010.66
2022-08-31T05:33:25.124Z,1010.7
2022-08-31T05:34:05.608Z,1010.7
2022-08-31T05:34:46.322Z,1010.74
2022-08-31T05:35:26.574Z,1010.7
2022-08-31T05:36:07.054Z,1010.71
2022-08-31T05:36:47.512Z,1010.65
2022-08-31T05:37:28.151Z,1010.7
2022-08-31T05:38:08.797Z,1010.67
2022-08-31T05:38:49.254Z,1010.67
2022-08-31T05:39:29.796Z,1010.68
2022-08-31T05:40:10.211Z,1010.7
2022-08-31T05:40:50.718Z,1010.67
2022-08-31T05:41:31.243Z,1010.67
2022-08-31T05:42:11.675Z,1010.74
2022-08-31T05:42:52.219Z,1010.73
2022-08-31T05:43:32.705Z,1010.75
2022-08-31T05:44:13.141Z,1010.71
2022-08-31T05:44:53.593Z,1010.73
2022-08-31T05:45:34.069Z,1010.76
2022-08-31T05:46:14.671Z,1010.75
2022-08-31T05:47:00.969Z,1010.74
2022-08-31T05:47:35.778Z,1010.75
2022-08-31T05:48:16.226Z,1010.78
2022-08-31T05:48:57.491Z,1010.79
2022-08-31T05:49:38.030Z,1010.79
2022-08-31T05:50:18.542Z,1010.79
2022-08-31T05:50:59.064Z,1010.81
2022-08-31T05:51:39.593Z,1010.84
2022-08-31T05:52:20.151Z,1010.83
2022-08-31T05:53:00.714Z,1010.86
2022-08-31T06:32:20.784Z,1010.9
2022-08-31T06:33:01.531Z,1010.91
2022-08-31T06:33:42.208Z,1010.93
2022-08-31T06:34:22.694Z,1010.94
2022-08-31T06:35:03.353Z,1010.93
2022-08-31T06:35:44.168Z,1010.95
2022-08-31T06:36:24.703Z,1010.95
2022-08-31T06:37:05.278Z,1010.97
2022-08-31T06:37:45.962Z,1010.99
2022-08-31T06:38:26.426Z,1011.05
2022-08-31T06:39:07.069Z,1010.99
2022-08-31T06:39:47.511Z,1010.98
2022-08-31T06:40:28.103Z,1011.01
2022-08-31T06:41:08.489Z,1011
2022-08-31T06:41:49.000Z,1011.02
2022-08-31T06:42:29.590Z,1011.03
2022-08-31T06:43:10.055Z,1011.01
2022-08-31T06:44:31.840Z,1010.94
2022-08-31T06:45:12.401Z,1010.95
2022-08-31T06:45:53.075Z,1010.96
2022-08-31T06:46:33.703Z,1010.96
2022-08-31T06:47:13.999Z,1010.91
2022-08-31T06:47:54.485Z,1010.91
2022-08-31T06:48:35.101Z,1010.92
2022-08-31T06:49:15.589Z,1010.9
2022-08-31T06:49:56.110Z,1010.9
2022-08-31T06:50:36.661Z,1010.91
2022-08-31T06:51:17.207Z,1010.92
2022-08-31T06:51:57.914Z,1010.9
2022-08-31T06:52:39.122Z,1010.89
2022-08-31T06:53:19.331Z,1010.95
2022-08-31T06:54:16.309Z,1010.91
2022-08-31T06:54:42.035Z,1010.93
2022-08-31T06:55:22.501Z,1010.92
2022-08-31T06:56:03.006Z,1010.97
2022-08-31T06:56:43.537Z,1010.96
2022-08-31T06:57:24.324Z,1010.98
2022-08-31T06:58:04.805Z,1010.99
2022-08-31T06:58:45.287Z,1010.98
2022-08-31T06:59:28.728Z,1010.98
2022-08-31T07:00:07.051Z,1010.98
2022-08-31T07:00:47.623Z,1011
2022-08-31T07:01:34.727Z,1010.98
2022-08-31T07:02:09.240Z,1011
2022-08-31T07:02:53.098Z,1011.01
2022-08-31T07:03:30.308Z,1011.01
2022-08-31T07:04:11.086Z,1011.02
2022-08-31T07:04:51.508Z,1011.03
2022-08-31T07:05:32.073Z,1011.04
2022-08-31T07:06:13.056Z,1011.03
2022-08-31T07:06:53.565Z,1011.03
2022-08-31T07:07:34.230Z,1011.03
2022-08-31T07:08:14.747Z,1011.04
2022-08-31T07:08:55.277Z,1011.08
2022-08-31T07:09:35.778Z,1011.06
2022-08-31T07:10:16.325Z,1011.05
2022-08-31T07:10:57.009Z,1011.1
2022-08-31T07:11:39.919Z,1011.1
2022-08-31T07:12:17.862Z,1011.1
2022-08-31T07:12:58.372Z,1011.14
2022-08-31T07:13:38.909Z,1011.14
2022-08-31T07:14:19.443Z,1011.15
2022-08-31T07:14:59.964Z,1011.14
2022-08-31T07:15:40.619Z,1011.18
2022-08-31T07:16:21.142Z,1011.13
2022-08-31T07:17:01.699Z,1011.16
2022-08-31T07:17:42.177Z,1011.17
2022-08-31T07:18:22.760Z,1011.14
2022-08-31T07:19:03.388Z,1011.19
2022-08-31T07:20:24.360Z,1011.23
2022-08-31T07:21:04.835Z,1011.2
2022-08-31T07:21:45.353Z,1011.21
2022-08-31T07:22:25.883Z,1011.21
2022-08-31T07:23:06.455Z,1011.21
2022-08-31T07:23:46.926Z,1011.21
2022-08-31T07:24:27.558Z,1011.22
2022-08-31T07:25:08.097Z,1011.24
2022-08-31T07:25:48.568Z,1011.22
2022-08-31T07:26:30.783Z,1011.24
2022-08-31T07:27:09.843Z,1011.22
2022-08-31T07:27:50.789Z,1011.18
2022-08-31T07:28:31.239Z,1011.22
2022-08-31T07:29:11.754Z,1011.21
2022-08-31T07:30:33.548Z,1011.24
2022-08-31T07:31:13.492Z,1011.26
2022-08-31T07:31:53.977Z,1011.24
2022-08-31T07:32:34.509Z,1011.25
2022-08-31T07:33:15.126Z,1011.26
2022-08-31T07:33:55.678Z,1011.25
2022-08-31T07:34:36.194Z,1011.27
2022-08-31T07:35:16.787Z,1011.27
2022-08-31T07:35:57.445Z,1011.31
2022-08-31T07:36:37.967Z,1011.3
2022-08-31T07:37:18.550Z,1011.34
2022-08-31T07:37:59.217Z,1011.31
2022-08-31T07:38:40.186Z,1011.32
2022-08-31T07:39:20.741Z,1011.31
2022-08-31T07:40:04.845Z,1011.32
2022-08-31T07:40:41.721Z,1011.38
2022-08-31T07:41:22.183Z,1011.37
2022-08-31T07:42:02.986Z,1011.34
2022-08-31T07:44:16.437Z,1011.4
2022-08-31T07:44:56.986Z,1011.37
2022-08-31T07:45:39.260Z,1011.4
2022-08-31T07:46:19.292Z,1011.39
2022-08-31T07:47:00.105Z,1011.42
2022-08-31T07:47:40.973Z,1011.4
2022-08-31T07:48:24.479Z,1011.41
2022-08-31T07:49:07.999Z,1011.43
2022-08-31T07:49:48.755Z,1011.43
2022-08-31T07:50:29.599Z,1011.45
2022-08-31T07:51:14.640Z,1011.46
2022-08-31T07:51:52.172Z,1011.44
2022-08-31T07:52:33.464Z,1011.44
2022-08-31T07:53:14.479Z,1011.45
2022-08-31T07:53:55.317Z,1011.44
2022-08-31T07:54:37.302Z,1011.45
2022-08-31T07:55:17.974Z,1011.47
2022-08-31T07:56:39.406Z,1011.49
2022-08-31T07:57:20.586Z,1011.51
2022-08-31T07:58:02.721Z,1011.51
2022-08-31T07:58:43.422Z,1011.53
2022-08-31T07:59:24.273Z,1011.54
2022-08-31T08:00:05.068Z,1011.55
2022-08-31T08:00:46.566Z,1011.57
2022-08-31T08:01:27.658Z,1011.56
2022-08-31T08:02:08.697Z,1011.56
2022-08-31T08:02:50.956Z,1011.55
2022-08-31T08:03:30.630Z,1011.55
2022-08-31T08:04:12.503Z,1011.54
2022-08-31T08:04:53.927Z,1011.53
2022-08-31T08:07:27.153Z,1011.48
2022-08-31T08:08:10.641Z,1011.48
2022-08-31T08:08:57.165Z,1011.47
2022-08-31T08:09:28.502Z,1011.52
2022-08-31T08:10:09.034Z,1011.5
2022-08-31T08:10:52.017Z,1011.53
2022-08-31T08:11:30.494Z,1011.51
2022-08-31T08:12:11.130Z,1011.47
2022-08-31T08:12:51.734Z,1011.49
2022-08-31T08:13:32.531Z,1011.48
2022-08-31T08:14:12.993Z,1011.48
2022-08-31T08:14:53.568Z,1011.48
2022-08-31T08:15:35.403Z,1011.51
2022-08-31T08:16:14.870Z,1011.46
2022-08-31T08:16:55.274Z,1011.49
2022-08-31T08:17:35.809Z,1011.49
2022-08-31T08:18:16.371Z,1011.47
2022-08-31T08:18:56.897Z,1011.5
2022-08-31T08:19:38.515Z,1011.47
2022-08-31T08:20:18.951Z,1011.5
2022-08-31T08:20:59.507Z,1011.47
2022-08-31T08:21:40.102Z,1011.48
2022-08-31T08:22:35.904Z,1011.48
2022-08-31T08:23:01.226Z,1011.47
2022-08-31T08:23:41.656Z,1011.49
2022-08-31T08:24:22.160Z,1011.49
2022-08-31T08:25:02.627Z,1011.51
2022-08-31T08:25:43.634Z,1011.51
2022-08-31T08:26:24.052Z,1011.51
2022-08-31T08:27:04.659Z,1011.56
2022-08-31T08:27:45.279Z,1011.54
2022-08-31T08:28:39.015Z,1011.51
2022-08-31T08:29:06.544Z,1011.56
2022-08-31T08:29:47.138Z,1011.57
2022-08-31T08:30:27.705Z,1011.55
2022-08-31T08:31:08.680Z,1011.57
2022-08-31T08:31:49.252Z,1011.58
2022-08-31T08:32:29.811Z,1011.6
2022-08-31T08:33:10.250Z,1011.62
2022-08-31T08:33:50.820Z,1011.64
2022-08-31T08:34:31.578Z,1011.61
2022-08-31T08:35:12.040Z,1011.6
2022-08-31T08:35:52.605Z,1011.59
2022-08-31T08:36:33.075Z,1011.62
2022-08-31T08:37:13.635Z,1011.6
2022-08-31T08:37:58.989Z,1011.58
2022-08-31T08:38:34.858Z,1011.59
2022-08-31T08:39:15.548Z,1011.59
2022-08-31T08:39:56.672Z,1011.61
2022-08-31T08:40:37.412Z,1011.62
2022-08-31T08:41:17.827Z,1011.64
2022-08-31T08:41:58.581Z,1011.64
2022-08-31T08:42:39.352Z,1011.64
2022-08-31T08:43:20.382Z,1011.65
2022-08-31T08:44:00.377Z,1011.68
2022-08-31T08:44:40.897Z,1011.69
2022-08-31T08:45:21.941Z,1011.67
2022-08-31T08:46:15.102Z,1011.72
2022-08-31T08:46:43.033Z,1011.68
2022-08-31T08:48:56.241Z,1011.69
2022-08-31T08:49:37.158Z,1011.72
2022-08-31T08:50:17.725Z,1011.73
2022-08-31T08:50:58.710Z,1011.71
2022-08-31T08:51:39.226Z,1011.71
2022-08-31T08:52:21.101Z,1011.72
2022-08-31T08:53:02.722Z,1011.72
2022-08-31T08:53:43.437Z,1011.68
2022-08-31T08:54:25.540Z,1011.73
2022-08-31T08:56:42.759Z,1011.7
2022-08-31T08:57:24.408Z,1011.7
2022-08-31T08:58:09.685Z,1011.72
2022-08-31T08:59:10.993Z,1011.69
2022-08-31T08:59:55.961Z,1011.7
2022-08-31T09:00:38.135Z,1011.7
2022-08-31T09:01:20.157Z,1011.7
2022-08-31T09:02:00.717Z,1011.67
2022-08-31T09:02:41.264Z,1011.66
2022-08-31T09:03:21.953Z,1011.69
2022-08-31T09:04:03.281Z,1011.67
2022-08-31T09:06:45.528Z,1011.72
2022-08-31T09:12:48.937Z,1011.74
2022-08-31T09:13:30.359Z,1011.73
2022-08-31T09:14:11.846Z,1011.75
2022-08-31T09:14:52.491Z,1011.75
2022-08-31T09:15:33.352Z,1011.74
2022-08-31T09:16:14.400Z,1011.74
2022-08-31T09:19:36.854Z,1011.76
2022-08-31T09:20:17.872Z,1011.76
2022-08-31T09:20:58.594Z,1011.77
2022-08-31T09:21:39.629Z,1011.78
2022-08-31T09:22:20.378Z,1011.76
2022-08-31T09:23:01.371Z,1011.79
2022-08-31T09:23:42.096Z,1011.74
2022-08-31T09:24:22.787Z,1011.71
2022-08-31T09:25:03.751Z,1011.74
2022-08-31T09:25:44.560Z,1011.71
2022-08-31T09:26:25.228Z,1011.76
2022-08-31T09:27:09.780Z,1011.73
2022-08-31T09:29:57.808Z,1011.73
2022-08-31T09:30:38.617Z,1011.72
2022-08-31T09:31:19.272Z,1011.73
2022-08-31T09:32:05.452Z,1011.73
2022-08-31T09:32:40.850Z,1011.73
2022-08-31T09:33:21.282Z,1011.74
2022-08-31T09:34:01.853Z,1011.76
2022-08-31T09:34:42.574Z,1011.74
2022-08-31T09:35:23.051Z,1011.79
2022-08-31T09:36:03.691Z,1011.79
2022-08-31T09:37:24.931Z,1011.75
2022-08-31T09:38:05.661Z,1011.8
2022-08-31T09:38:46.275Z,1011.75
2022-08-31T09:39:27.656Z,1011.81
2022-08-31T09:40:07.699Z,1011.8
2022-08-31T09:40:48.428Z,1011.81
2022-08-31T09:41:28.595Z,1011.83
2022-08-31T09:42:09.149Z,1011.81
2022-08-31T09:42:49.711Z,1011.81
2022-08-31T09:43:30.286Z,1011.81
2022-08-31T09:44:11.008Z,1011.84
2022-08-31T09:44:51.524Z,1011.83
2022-08-31T09:45:32.141Z,1011.81
2022-08-31T09:46:12.863Z,1011.8
2022-08-31T09:46:53.618Z,1011.82
2022-08-31T09:47:35.089Z,1011.87
2022-08-31T09:48:15.244Z,1011.89
2022-08-31T09:48:55.903Z,1011.86
2022-08-31T09:49:36.860Z,1011.86
2022-08-31T09:53:38.000Z,1011.88
2022-08-31T09:54:18.596Z,1011.86
2022-08-31T09:54:59.213Z,1011.87
2022-08-31T09:58:21.261Z,1011.89
2022-08-31T09:59:04.879Z,1011.93
2022-08-31T09:59:47.372Z,1011.87
2022-08-31T10:00:32.868Z,1011.84
2022-08-31T10:01:14.678Z,1011.86
2022-08-31T10:01:56.528Z,1011.83
2022-08-31T10:02:39.325Z,1011.83
2022-08-31T10:03:36.651Z,1011.81
2022-08-31T10:04:18.591Z,1011.8
2022-08-31T10:05:01.363Z,1011.81
2022-08-31T10:05:42.956Z,1011.77
2022-08-31T10:06:25.645Z,1011.76
2022-08-31T10:07:07.956Z,1011.77
2022-08-31T10:07:49.083Z,1011.76
2022-08-31T10:08:32.175Z,1011.81
2022-08-31T10:09:11.526Z,1011.77
2022-08-31T10:09:57.519Z,1011.76
2022-08-31T10:10:33.053Z,1011.77